Terminal Aerodrome Forecast
Issued by NWS Cleveland, OH

Home | Current Version | Previous Version | Text Only | Print | Product List | Glossary On
Versions: 1 2 3 4 5 6 7 8 9 10 11 12 13 14 15
000
FTUS41 KCLE 291125
TAFYNG
TAF
KYNG 291125Z 2912/3012 18009KT P6SM BKN045 BKN150
     FM291400 21014G24KT P6SM SCT045 BKN200
     FM300100 21008KT P6SM VCTS SCT045 BKN100CB
     FM300800 21008KT 4SM BR VCSH SCT025 BKN100=

USA.gov is the U.S. government's official web portal to all federal, state and local government web resources and services.